Terminal Aerodrome Forecast
Issued by NWS Grand Junction, CO

Current Version | Previous Version | Text Only | Print | Product List | Glossary On
Versions: 1 2 3 4 5 6 7 8 9 10 11 12 13 14 15 16 17 18 19 20 21 22 23 24 25 26 27 28 29 30 31 32 33 34 35 36 37 38 39 40 41 42 43 44 45 46 47 48 49 50
825
FTUS45 KGJT 232341
TAFGJT
TAF
KGJT 232341Z 2400/2424 34010KT P6SM SCT024 BKN070 OVC090
     FM240300 23010KT P6SM BKN090
     FM240700 14007KT P6SM VCSH OVC040
     FM241700 31005KT P6SM BKN080=

USA.gov is the U.S. government's official web portal to all federal, state and local government web resources and services.